Lakeland, MI (48143)

1:58 AM EDT on March 24, 2017 (GMT -0400)
Bass Ridge, Bass Lake | | Change Station

Elev 886 ft 42.46 °N, 83.87 °W | Updated 1 second ago

Rain
Rain
37.8 °F
Feels Like 34 °F
N
4.4
Wind Variable Wind from South
Gusts 8.3 mph

Today
High -- | Low -- °F
--% Chance of Precip.
Yesterday
High -- | Low -- °F
Precip. -- in
Pressure 30.05 in
Visibility 10.0 miles
Clouds Scattered Clouds 4900 ft
Scattered Clouds 6500 ft
Overcast 10000 ft
Windchill 34 °F
Dew Point 36 °F
Humidity 95%
Rainfall 0.15 in
Snow Depth Not available.
7:31 AM 7:52 PM
Waning Crescent, 17% visible
METAR KOZW 240554Z AUTO 16014G18KT 10SM -RA SCT049 SCT065 OVC100 03/01 A3005 RMK AO2 P0005 60008 T00280010 10042 20015 400711071
Pressure 30.05 in
Visibility 10.0 miles
Clouds Scattered Clouds 4900 ft
Scattered Clouds 6500 ft
Overcast 10000 ft
Windchill 34 °F
Dew Point 36 °F
Humidity 95%
Rainfall 0.15 in
Snow Depth Not available.
7:31 AM 7:52 PM
Waning Crescent, 17% visible
METAR KOZW 240554Z AUTO 16014G18KT 10SM -RA SCT049 SCT065 OVC100 03/01 A3005 RMK AO2 P0005 60008 T00280010 10042 20015 400711071

Get Severe Weather Alerts

Thanks for signing up!

Be on the lookout for a verification email in your inbox.

You'll start receiving the daily forecast at 8 AM.

×

10-Day Weather Forecast

Almanac

Astronomy

Mar. 24, 2017 Rise Set
Actual Time
Civil Twilight
Nautical Twilight
Astronomical Twilight
Moon
Length of Visible Light
Length of Day
Tomorrow will be .
, % of the Moon is Illuminated

Today's Extremes

State Highs State Lows

Community

WunderPhotos

Upload Photos

1,962,540 photos uploaded!

WunderBlog® & News

Nearby

Air Quality

  Air Quality AQ Index Pollutant
Not available.

Snow Depth

Station Depth Elevation

Earthquake Activity

City Distance Mag. Time & Date
Minimum magnitude displayed is 2.5.

Earthquake Activity

City Distance Mag. Time & Date
Minimum magnitude displayed is 2.5.

Coastal Water Temperatures

Place Temperature

Stations

Nearby Weather Stations

Station Location Temp. Windchill Dew Point Humidity Wind Precip. Elev Updated Type
                   

Watches & Warnings

There are currently no watches in effect.